sensor_id;sensor_type;location;lat;lon;timestamp;pressure;altitude;pressure_sealevel;temperature;humidity
79037;BME280;68434;59.896;30.474;2023-04-24T00:01:31;100748.88;;;13.21;44.70
79037;BME280;68434;59.896;30.474;2023-04-24T00:04:00;100737.31;;;13.19;45.50
79037;BME280;68434;59.896;30.474;2023-04-24T00:06:29;100738.00;;;13.21;45.19
79037;BME280;68434;59.896;30.474;2023-04-24T00:08:59;100734.59;;;13.19;46.17
79037;BME280;68434;59.896;30.474;2023-04-24T00:11:28;100744.47;;;13.20;46.36
79037;BME280;68434;59.896;30.474;2023-04-24T00:13:56;100740.72;;;13.21;45.65
79037;BME280;68434;59.896;30.474;2023-04-24T00:16:25;100734.09;;;13.16;45.91
79037;BME280;68434;59.896;30.474;2023-04-24T00:18:53;100726.44;;;13.19;45.68
79037;BME280;68434;59.896;30.474;2023-04-24T00:21:20;100737.81;;;13.23;46.23
79037;BME280;68434;59.896;30.474;2023-04-24T00:23:51;100729.50;;;13.24;45.78
79037;BME280;68434;59.896;30.474;2023-04-24T00:26:19;100729.50;;;13.24;46.37
79037;BME280;68434;59.896;30.474;2023-04-24T00:28:47;100732.72;;;13.28;45.87
79037;BME280;68434;59.896;30.474;2023-04-24T00:31:15;100731.88;;;13.27;46.33
79037;BME280;68434;59.896;30.474;2023-04-24T00:33:44;100731.69;;;13.29;45.41
79037;BME280;68434;59.896;30.474;2023-04-24T00:36:11;100726.63;;;13.26;46.14
79037;BME280;68434;59.896;30.474;2023-04-24T00:38:39;100710.31;;;13.26;45.54
79037;BME280;68434;59.896;30.474;2023-04-24T00:41:07;100716.44;;;13.28;45.39
79037;BME280;68434;59.896;30.474;2023-04-24T00:43:35;100724.25;;;13.31;46.09
79037;BME280;68434;59.896;30.474;2023-04-24T00:46:02;100713.19;;;13.33;45.15
79037;BME280;68434;59.896;30.474;2023-04-24T00:48:30;100711.31;;;13.33;46.34
79037;BME280;68434;59.896;30.474;2023-04-24T00:51:00;100715.56;;;13.36;46.08
79037;BME280;68434;59.896;30.474;2023-04-24T00:53:28;100712.00;;;13.35;45.71
79037;BME280;68434;59.896;30.474;2023-04-24T00:55:56;100712.84;;;13.36;45.95
79037;BME280;68434;59.896;30.474;2023-04-24T00:58:24;100716.22;;;13.38;46.16
79037;BME280;68434;59.896;30.474;2023-04-24T01:00:51;100714.53;;;13.37;45.67
79037;BME280;68434;59.896;30.474;2023-04-24T01:03:20;100708.25;;;13.36;46.01
79037;BME280;68434;59.896;30.474;2023-04-24T01:05:49;100711.31;;;13.33;45.24
79037;BME280;68434;59.896;30.474;2023-04-24T01:08:18;100709.44;;;13.34;45.98
79037;BME280;68434;59.896;30.474;2023-04-24T01:10:46;100704.34;;;13.31;45.97
79037;BME280;68434;59.896;30.474;2023-04-24T01:13:15;100701.13;;;13.27;45.54
79037;BME280;68434;59.896;30.474;2023-04-24T01:15:44;100704.88;;;13.26;46.04
79037;BME280;68434;59.896;30.474;2023-04-24T01:18:12;100709.78;;;13.22;45.89
79037;BME280;68434;59.896;30.474;2023-04-24T01:20:40;100704.38;;;13.22;46.46
79037;BME280;68434;59.896;30.474;2023-04-24T01:23:11;100700.81;;;13.22;46.95
79037;BME280;68434;59.896;30.474;2023-04-24T01:25:38;100701.47;;;13.24;46.73
79037;BME280;68434;59.896;30.474;2023-04-24T01:28:06;100695.88;;;13.25;46.51
79037;BME280;68434;59.896;30.474;2023-04-24T01:30:34;100694.69;;;13.28;46.86
79037;BME280;68434;59.896;30.474;2023-04-24T01:33:01;100698.25;;;13.28;47.34
79037;BME280;68434;59.896;30.474;2023-04-24T01:35:29;100696.03;;;13.32;46.59
79037;BME280;68434;59.896;30.474;2023-04-24T01:37:57;100695.00;;;13.33;46.31
79037;BME280;68434;59.896;30.474;2023-04-24T01:40:26;100683.47;;;13.31;46.79
79037;BME280;68434;59.896;30.474;2023-04-24T01:42:53;100688.91;;;13.31;47.09
79037;BME280;68434;59.896;30.474;2023-04-24T01:45:22;100686.84;;;13.33;46.81
79037;BME280;68434;59.896;30.474;2023-04-24T01:47:50;100688.22;;;13.37;46.27
79037;BME280;68434;59.896;30.474;2023-04-24T01:50:18;100682.28;;;13.34;47.24
79037;BME280;68434;59.896;30.474;2023-04-24T01:52:46;100685.16;;;13.40;46.69
79037;BME280;68434;59.896;30.474;2023-04-24T01:55:13;100684.63;;;13.45;46.56
79037;BME280;68434;59.896;30.474;2023-04-24T01:57:42;100680.69;;;13.47;46.48
79037;BME280;68434;59.896;30.474;2023-04-24T02:00:10;100688.69;;;13.49;45.94
79037;BME280;68434;59.896;30.474;2023-04-24T02:02:41;100676.78;;;13.50;46.03
79037;BME280;68434;59.896;30.474;2023-04-24T02:05:09;100677.81;;;13.49;46.75
79037;BME280;68434;59.896;30.474;2023-04-24T02:07:37;100684.28;;;13.48;46.64
79037;BME280;68434;59.896;30.474;2023-04-24T02:10:05;100676.94;;;13.48;46.28
79037;BME280;68434;59.896;30.474;2023-04-24T02:12:33;100681.56;;;13.48;46.54
79037;BME280;68434;59.896;30.474;2023-04-24T02:15:03;100675.44;;;13.46;47.47
79037;BME280;68434;59.896;30.474;2023-04-24T02:17:32;100668.50;;;13.43;46.66
79037;BME280;68434;59.896;30.474;2023-04-24T02:20:00;100666.94;;;13.41;46.50
79037;BME280;68434;59.896;30.474;2023-04-24T02:22:29;100668.84;;;13.40;46.96
79037;BME280;68434;59.896;30.474;2023-04-24T02:24:57;100667.47;;;13.36;46.87
79037;BME280;68434;59.896;30.474;2023-04-24T02:27:24;100664.28;;;13.33;47.14
79037;BME280;68434;59.896;30.474;2023-04-24T02:29:52;100667.34;;;13.30;47.52
79037;BME280;68434;59.896;30.474;2023-04-24T02:32:21;100673.97;;;13.27;47.12
79037;BME280;68434;59.896;30.474;2023-04-24T02:34:49;100679.38;;;13.27;47.49
79037;BME280;68434;59.896;30.474;2023-04-24T02:37:16;100671.75;;;13.22;47.64
79037;BME280;68434;59.896;30.474;2023-04-24T02:39:44;100661.94;;;13.21;47.90
79037;BME280;68434;59.896;30.474;2023-04-24T02:42:11;100669.91;;;13.23;47.98
79037;BME280;68434;59.896;30.474;2023-04-24T02:44:39;100668.56;;;13.19;47.71
79037;BME280;68434;59.896;30.474;2023-04-24T02:47:07;100670.44;;;13.18;47.45
79037;BME280;68434;59.896;30.474;2023-04-24T02:49:36;100663.13;;;13.19;47.72
79037;BME280;68434;59.896;30.474;2023-04-24T02:52:04;100664.13;;;13.18;47.41
79037;BME280;68434;59.896;30.474;2023-04-24T02:54:31;100665.00;;;13.18;47.37
79037;BME280;68434;59.896;30.474;2023-04-24T02:56:59;100657.19;;;13.15;48.03
79037;BME280;68434;59.896;30.474;2023-04-24T02:59:27;100658.69;;;13.18;48.47
79037;BME280;68434;59.896;30.474;2023-04-24T03:01:55;100660.75;;;13.16;47.64
79037;BME280;68434;59.896;30.474;2023-04-24T03:04:22;100660.94;;;13.14;47.10
79037;BME280;68434;59.896;30.474;2023-04-24T03:06:52;100652.97;;;13.13;48.11
79037;BME280;68434;59.896;30.474;2023-04-24T03:09:21;100660.75;;;13.16;48.33
79037;BME280;68434;59.896;30.474;2023-04-24T03:11:48;100647.66;;;13.19;47.67
79037;BME280;68434;59.896;30.474;2023-04-24T03:14:16;100654.94;;;13.27;47.68
79037;BME280;68434;59.896;30.474;2023-04-24T03:16:44;100656.31;;;13.31;48.37
79037;BME280;68434;59.896;30.474;2023-04-24T03:19:11;100657.63;;;13.35;47.89
79037;BME280;68434;59.896;30.474;2023-04-24T03:21:53;100655.09;;;13.42;47.69
79037;BME280;68434;59.896;30.474;2023-04-24T03:24:21;100657.63;;;13.43;48.10
79037;BME280;68434;59.896;30.474;2023-04-24T03:26:49;100651.84;;;13.46;47.79
79037;BME280;68434;59.896;30.474;2023-04-24T03:29:31;100650.28;;;13.52;46.65
79037;BME280;68434;59.896;30.474;2023-04-24T03:31:59;100646.16;;;13.56;47.04
79037;BME280;68434;59.896;30.474;2023-04-24T03:34:26;100655.88;;;13.58;47.02
79037;BME280;68434;59.896;30.474;2023-04-24T03:36:57;100643.28;;;13.57;47.34
79037;BME280;68434;59.896;30.474;2023-04-24T03:39:25;100651.06;;;13.60;47.43
79037;BME280;68434;59.896;30.474;2023-04-24T03:41:55;100644.63;;;13.61;47.13
79037;BME280;68434;59.896;30.474;2023-04-24T03:44:32;100639.19;;;13.61;46.90
79037;BME280;68434;59.896;30.474;2023-04-24T03:47:00;100648.50;;;13.67;46.54
79037;BME280;68434;59.896;30.474;2023-04-24T03:49:28;100646.66;;;13.67;46.18
79037;BME280;68434;59.896;30.474;2023-04-24T03:52:16;100647.97;;;13.71;46.58
79037;BME280;68434;59.896;30.474;2023-04-24T03:54:43;100646.59;;;13.75;46.17
79037;BME280;68434;59.896;30.474;2023-04-24T03:57:11;100645.06;;;13.81;46.62
79037;BME280;68434;59.896;30.474;2023-04-24T03:59:47;100650.31;;;13.82;46.57
79037;BME280;68434;59.896;30.474;2023-04-24T04:02:18;100653.81;;;13.91;45.72
79037;BME280;68434;59.896;30.474;2023-04-24T04:04:46;100645.97;;;13.96;45.57
79037;BME280;68434;59.896;30.474;2023-04-24T04:07:15;100655.09;;;14.03;46.25
79037;BME280;68434;59.896;30.474;2023-04-24T04:09:43;100642.53;;;14.02;45.57
79037;BME280;68434;59.896;30.474;2023-04-24T04:12:11;100643.19;;;14.04;45.44
79037;BME280;68434;59.896;30.474;2023-04-24T04:14:39;100641.66;;;14.09;45.43
79037;BME280;68434;59.896;30.474;2023-04-24T04:17:06;100648.59;;;14.12;45.76
79037;BME280;68434;59.896;30.474;2023-04-24T04:19:34;100647.50;;;14.21;45.14
79037;BME280;68434;59.896;30.474;2023-04-24T04:22:02;100640.53;;;14.26;45.23
79037;BME280;68434;59.896;30.474;2023-04-24T04:24:44;100642.97;;;14.44;44.61
79037;BME280;68434;59.896;30.474;2023-04-24T04:27:12;100644.78;;;14.51;44.71
79037;BME280;68434;59.896;30.474;2023-04-24T04:29:49;100641.50;;;14.56;44.54
79037;BME280;68434;59.896;30.474;2023-04-24T04:32:17;100639.72;;;14.63;44.22
79037;BME280;68434;59.896;30.474;2023-04-24T04:34:45;100634.75;;;14.66;44.11
79037;BME280;68434;59.896;30.474;2023-04-24T04:37:13;100631.31;;;14.72;43.98
79037;BME280;68434;59.896;30.474;2023-04-24T04:39:52;100633.28;;;14.78;43.69
79037;BME280;68434;59.896;30.474;2023-04-24T04:42:23;100637.03;;;14.77;43.92
79037;BME280;68434;59.896;30.474;2023-04-24T04:44:51;100632.44;;;14.78;43.62
79037;BME280;68434;59.896;30.474;2023-04-24T04:47:24;100633.09;;;14.80;43.71
79037;BME280;68434;59.896;30.474;2023-04-24T04:49:55;100635.84;;;14.80;43.76
79037;BME280;68434;59.896;30.474;2023-04-24T04:52:26;100622.03;;;14.81;43.38
79037;BME280;68434;59.896;30.474;2023-04-24T04:55:08;100629.34;;;14.95;43.05
79037;BME280;68434;59.896;30.474;2023-04-24T04:58:04;100627.69;;;15.09;42.82
79037;BME280;68434;59.896;30.474;2023-04-24T05:00:32;100623.75;;;15.26;42.79
79037;BME280;68434;59.896;30.474;2023-04-24T05:03:06;100618.97;;;15.43;42.33
79037;BME280;68434;59.896;30.474;2023-04-24T05:05:34;100620.81;;;15.71;41.81
79037;BME280;68434;59.896;30.474;2023-04-24T05:08:08;100623.72;;;16.05;40.89
79037;BME280;68434;59.896;30.474;2023-04-24T05:10:38;100621.66;;;16.92;38.95
79037;BME280;68434;59.896;30.474;2023-04-24T05:13:06;100621.06;;;17.30;38.68
79037;BME280;68434;59.896;30.474;2023-04-24T05:15:33;100613.91;;;17.29;38.61
79037;BME280;68434;59.896;30.474;2023-04-24T05:18:01;100608.88;;;17.33;38.04
79037;BME280;68434;59.896;30.474;2023-04-24T05:20:29;100612.50;;;17.80;37.00
79037;BME280;68434;59.896;30.474;2023-04-24T05:22:56;100606.38;;;18.38;35.64
79037;BME280;68434;59.896;30.474;2023-04-24T05:25:25;100601.72;;;18.45;35.78
79037;BME280;68434;59.896;30.474;2023-04-24T05:27:58;100599.81;;;19.05;34.83
79037;BME280;68434;59.896;30.474;2023-04-24T05:30:26;100592.91;;;19.66;33.61
79037;BME280;68434;59.896;30.474;2023-04-24T05:32:54;100595.72;;;19.97;32.51
79037;BME280;68434;59.896;30.474;2023-04-24T05:35:21;100593.50;;;20.25;32.03
79037;BME280;68434;59.896;30.474;2023-04-24T05:37:49;100595.25;;;20.69;31.17
79037;BME280;68434;59.896;30.474;2023-04-24T05:40:18;100592.09;;;20.90;30.88
79037;BME280;68434;59.896;30.474;2023-04-24T05:42:46;100594.31;;;20.81;31.33
79037;BME280;68434;59.896;30.474;2023-04-24T05:48:02;100581.06;;;21.93;28.96
79037;BME280;68434;59.896;30.474;2023-04-24T05:50:30;100571.84;;;22.70;28.29
79037;BME280;68434;59.896;30.474;2023-04-24T05:52:58;100568.34;;;23.55;27.05
79037;BME280;68434;59.896;30.474;2023-04-24T05:55:33;100577.66;;;23.77;26.35
79037;BME280;68434;59.896;30.474;2023-04-24T05:58:02;100573.47;;;23.74;26.32
79037;BME280;68434;59.896;30.474;2023-04-24T06:00:31;100574.00;;;24.89;25.12
79037;BME280;68434;59.896;30.474;2023-04-24T06:03:04;100570.00;;;25.77;24.08
79037;BME280;68434;59.896;30.474;2023-04-24T06:05:32;100572.69;;;25.29;23.55
79037;BME280;68434;59.896;30.474;2023-04-24T06:08:03;100569.47;;;24.83;24.11
79037;BME280;68434;59.896;30.474;2023-04-24T06:10:35;100562.19;;;25.69;23.70
79037;BME280;68434;59.896;30.474;2023-04-24T06:13:21;100559.53;;;26.86;22.60
79037;BME280;68434;59.896;30.474;2023-04-24T06:16:10;100563.25;;;27.33;21.84
79037;BME280;68434;59.896;30.474;2023-04-24T06:18:41;100560.16;;;26.61;22.32
79037;BME280;68434;59.896;30.474;2023-04-24T06:21:08;100548.78;;;27.31;21.28
79037;BME280;68434;59.896;30.474;2023-04-24T06:23:36;100551.63;;;27.41;21.51
79037;BME280;68434;59.896;30.474;2023-04-24T06:26:04;100551.63;;;27.46;21.01
79037;BME280;68434;59.896;30.474;2023-04-24T06:28:32;100550.03;;;27.13;21.61
79037;BME280;68434;59.896;30.474;2023-04-24T06:30:59;100542.19;;;25.89;22.64
79037;BME280;68434;59.896;30.474;2023-04-24T06:33:29;100558.19;;;24.56;24.31
79037;BME280;68434;59.896;30.474;2023-04-24T06:35:58;100549.63;;;24.58;24.28
79037;BME280;68434;59.896;30.474;2023-04-24T06:38:25;100548.84;;;25.28;23.66
79037;BME280;68434;59.896;30.474;2023-04-24T06:40:53;100539.53;;;26.26;22.92
79037;BME280;68434;59.896;30.474;2023-04-24T06:43:20;100537.03;;;26.24;22.01
79037;BME280;68434;59.896;30.474;2023-04-24T06:45:48;100531.38;;;27.50;21.12
79037;BME280;68434;59.896;30.474;2023-04-24T06:48:16;100535.59;;;27.63;20.42
79037;BME280;68434;59.896;30.474;2023-04-24T06:50:45;100529.13;;;28.14;19.93
79037;BME280;68434;59.896;30.474;2023-04-24T06:53:15;100534.56;;;27.84;20.34
79037;BME280;68434;59.896;30.474;2023-04-24T06:55:42;100533.28;;;28.27;19.79
79037;BME280;68434;59.896;30.474;2023-04-24T06:58:10;100517.19;;;28.44;19.31
79037;BME280;68434;59.896;30.474;2023-04-24T07:00:38;100526.81;;;27.91;19.40
79037;BME280;68434;59.896;30.474;2023-04-24T07:03:06;100515.22;;;28.29;19.86
79037;BME280;68434;59.896;30.474;2023-04-24T07:05:33;100512.16;;;28.36;19.37
79037;BME280;68434;59.896;30.474;2023-04-24T07:08:06;100514.34;;;27.32;20.33
79037;BME280;68434;59.896;30.474;2023-04-24T07:10:37;100523.28;;;27.44;20.65
79037;BME280;68434;59.896;30.474;2023-04-24T07:13:05;100503.19;;;27.89;19.63
79037;BME280;68434;59.896;30.474;2023-04-24T07:15:32;100513.28;;;28.15;19.46
79037;BME280;68434;59.896;30.474;2023-04-24T07:18:00;100520.97;;;27.26;20.06
79037;BME280;68434;59.896;30.474;2023-04-24T07:20:28;100507.84;;;26.75;20.72
79037;BME280;68434;59.896;30.474;2023-04-24T07:22:56;100520.97;;;25.78;21.91
79037;BME280;68434;59.896;30.474;2023-04-24T07:25:25;100528.53;;;25.61;22.22
79037;BME280;68434;59.896;30.474;2023-04-24T07:27:53;100525.50;;;25.41;22.07
79037;BME280;68434;59.896;30.474;2023-04-24T07:30:20;100538.53;;;25.24;22.80
79037;BME280;68434;59.896;30.474;2023-04-24T07:32:47;100533.66;;;24.76;23.59
79037;BME280;68434;59.896;30.474;2023-04-24T07:35:15;100526.84;;;24.51;23.46
79037;BME280;68434;59.896;30.474;2023-04-24T07:37:43;100545.00;;;23.74;23.10
79037;BME280;68434;59.896;30.474;2023-04-24T07:40:12;100553.31;;;23.62;23.58
79037;BME280;68434;59.896;30.474;2023-04-24T07:42:41;100529.38;;;23.17;23.77
79037;BME280;68434;59.896;30.474;2023-04-24T07:45:09;100527.78;;;23.21;23.93
79037;BME280;68434;59.896;30.474;2023-04-24T07:47:37;100527.09;;;23.14;24.08
79037;BME280;68434;59.896;30.474;2023-04-24T07:50:06;100526.97;;;23.32;24.63
79037;BME280;68434;59.896;30.474;2023-04-24T07:52:34;100544.09;;;23.45;24.23
79037;BME280;68434;59.896;30.474;2023-04-24T07:55:01;100531.06;;;23.29;24.38
79037;BME280;68434;59.896;30.474;2023-04-24T07:57:32;100526.03;;;23.26;24.13
79037;BME280;68434;59.896;30.474;2023-04-24T08:00:02;100519.25;;;23.45;24.00
79037;BME280;68434;59.896;30.474;2023-04-24T08:02:38;100520.84;;;23.41;24.07
79037;BME280;68434;59.896;30.474;2023-04-24T08:05:06;100530.09;;;23.24;24.16
79037;BME280;68434;59.896;30.474;2023-04-24T08:07:34;100520.09;;;23.34;24.31
79037;BME280;68434;59.896;30.474;2023-04-24T08:10:01;100520.19;;;23.51;24.21
79037;BME280;68434;59.896;30.474;2023-04-24T08:12:29;100520.69;;;23.48;23.91
79037;BME280;68434;59.896;30.474;2023-04-24T08:14:56;100521.88;;;23.52;23.66
79037;BME280;68434;59.896;30.474;2023-04-24T08:17:25;100518.69;;;23.32;23.42
79037;BME280;68434;59.896;30.474;2023-04-24T08:19:53;100530.66;;;23.37;23.29
79037;BME280;68434;59.896;30.474;2023-04-24T08:22:45;100517.00;;;23.31;22.93
79037;BME280;68434;59.896;30.474;2023-04-24T08:25:15;100506.88;;;23.48;23.21
79037;BME280;68434;59.896;30.474;2023-04-24T08:27:43;100523.06;;;23.56;23.47
79037;BME280;68434;59.896;30.474;2023-04-24T08:30:11;100522.56;;;23.59;23.22
79037;BME280;68434;59.896;30.474;2023-04-24T08:35:26;100523.59;;;23.41;23.57
79037;BME280;68434;59.896;30.474;2023-04-24T08:37:54;100512.31;;;23.20;23.30
79037;BME280;68434;59.896;30.474;2023-04-24T08:40:27;100518.81;;;23.25;23.88
79037;BME280;68434;59.896;30.474;2023-04-24T08:42:56;100509.69;;;23.02;23.81
79037;BME280;68434;59.896;30.474;2023-04-24T08:45:24;100513.91;;;22.81;23.51
79037;BME280;68434;59.896;30.474;2023-04-24T08:48:12;100518.13;;;22.72;23.87
79037;BME280;68434;59.896;30.474;2023-04-24T08:50:40;100499.50;;;22.79;24.05
79037;BME280;68434;59.896;30.474;2023-04-24T08:53:09;100516.19;;;22.84;23.68
79037;BME280;68434;59.896;30.474;2023-04-24T08:55:37;100506.13;;;22.78;23.24
79037;BME280;68434;59.896;30.474;2023-04-24T08:58:25;100514.25;;;22.73;22.99
79037;BME280;68434;59.896;30.474;2023-04-24T09:00:54;100518.47;;;22.64;22.98
79037;BME280;68434;59.896;30.474;2023-04-24T09:03:24;100521.34;;;22.69;23.22
79037;BME280;68434;59.896;30.474;2023-04-24T09:05:52;100508.88;;;22.67;23.33
79037;BME280;68434;59.896;30.474;2023-04-24T09:08:24;100511.38;;;22.91;23.14
79037;BME280;68434;59.896;30.474;2023-04-24T09:10:51;100502.06;;;22.92;23.01
79037;BME280;68434;59.896;30.474;2023-04-24T09:13:20;100505.38;;;23.17;23.27
79037;BME280;68434;59.896;30.474;2023-04-24T09:15:47;100502.00;;;23.15;22.85
79037;BME280;68434;59.896;30.474;2023-04-24T09:18:15;100497.13;;;23.06;22.90
79037;BME280;68434;59.896;30.474;2023-04-24T09:21:01;100501.19;;;23.03;22.97
79037;BME280;68434;59.896;30.474;2023-04-24T09:23:30;100508.88;;;23.01;23.02
79037;BME280;68434;59.896;30.474;2023-04-24T09:25:59;100503.59;;;22.88;22.82
79037;BME280;68434;59.896;30.474;2023-04-24T09:28:30;100506.59;;;22.87;23.42
79037;BME280;68434;59.896;30.474;2023-04-24T09:31:06;100502.28;;;22.91;23.35
79037;BME280;68434;59.896;30.474;2023-04-24T09:33:34;100482.59;;;22.87;23.13
79037;BME280;68434;59.896;30.474;2023-04-24T09:36:04;100492.41;;;23.06;23.43
79037;BME280;68434;59.896;30.474;2023-04-24T09:38:34;100500.34;;;23.14;23.28
79037;BME280;68434;59.896;30.474;2023-04-24T09:41:03;100484.88;;;23.02;23.50
79037;BME280;68434;59.896;30.474;2023-04-24T09:43:31;100497.59;;;23.03;23.56
79037;BME280;68434;59.896;30.474;2023-04-24T09:46:04;100499.63;;;22.96;23.78
79037;BME280;68434;59.896;30.474;2023-04-24T09:48:34;100490.09;;;23.15;23.93
79037;BME280;68434;59.896;30.474;2023-04-24T09:51:05;100498.63;;;23.13;23.26
79037;BME280;68434;59.896;30.474;2023-04-24T09:53:36;100488.19;;;23.15;23.32
79037;BME280;68434;59.896;30.474;2023-04-24T09:56:09;100501.19;;;23.03;23.33
79037;BME280;68434;59.896;30.474;2023-04-24T09:58:38;100502.00;;;23.15;23.61
79037;BME280;68434;59.896;30.474;2023-04-24T10:01:06;100497.72;;;22.96;23.09
79037;BME280;68434;59.896;30.474;2023-04-24T10:03:34;100491.22;;;23.02;23.16
79037;BME280;68434;59.896;30.474;2023-04-24T10:06:02;100496.50;;;23.04;23.20
79037;BME280;68434;59.896;30.474;2023-04-24T10:08:36;100486.63;;;23.19;23.57
79037;BME280;68434;59.896;30.474;2023-04-24T10:11:04;100481.47;;;23.23;23.16
79037;BME280;68434;59.896;30.474;2023-04-24T10:13:32;100486.00;;;23.40;23.10
79037;BME280;68434;59.896;30.474;2023-04-24T10:16:00;100489.84;;;23.39;23.00
79037;BME280;68434;59.896;30.474;2023-04-24T10:18:29;100501.16;;;23.38;23.02
79037;BME280;68434;59.896;30.474;2023-04-24T10:20:59;100496.13;;;23.23;23.07
79037;BME280;68434;59.896;30.474;2023-04-24T10:23:28;100508.69;;;23.42;22.77
79037;BME280;68434;59.896;30.474;2023-04-24T10:26:00;100504.59;;;23.45;22.89
79037;BME280;68434;59.896;30.474;2023-04-24T10:28:30;100507.88;;;23.30;22.92
79037;BME280;68434;59.896;30.474;2023-04-24T10:30:59;100510.28;;;23.15;23.01
79037;BME280;68434;59.896;30.474;2023-04-24T10:33:28;100494.56;;;23.27;23.15
79037;BME280;68434;59.896;30.474;2023-04-24T10:35:56;100493.00;;;23.31;23.13
79037;BME280;68434;59.896;30.474;2023-04-24T10:38:26;100504.19;;;23.25;22.94
79037;BME280;68434;59.896;30.474;2023-04-24T10:41:07;100497.31;;;23.27;22.82
79037;BME280;68434;59.896;30.474;2023-04-24T10:43:35;100497.09;;;23.29;23.18
79037;BME280;68434;59.896;30.474;2023-04-24T10:46:04;100499.00;;;23.17;23.04
79037;BME280;68434;59.896;30.474;2023-04-24T10:48:33;100486.66;;;23.31;23.33
79037;BME280;68434;59.896;30.474;2023-04-24T10:51:01;100509.06;;;23.34;23.24
79037;BME280;68434;59.896;30.474;2023-04-24T10:53:29;100499.59;;;23.30;23.04
79037;BME280;68434;59.896;30.474;2023-04-24T10:56:03;100502.72;;;23.34;23.14
79037;BME280;68434;59.896;30.474;2023-04-24T10:58:38;100500.06;;;23.39;22.99
79037;BME280;68434;59.896;30.474;2023-04-24T11:01:07;100504.34;;;23.58;23.32
79037;BME280;68434;59.896;30.474;2023-04-24T11:03:34;100496.13;;;23.63;23.27
79037;BME280;68434;59.896;30.474;2023-04-24T11:06:04;100518.88;;;23.42;23.07
79037;BME280;68434;59.896;30.474;2023-04-24T11:08:37;100507.16;;;23.23;23.09
79037;BME280;68434;59.896;30.474;2023-04-24T11:11:10;100518.56;;;23.27;23.27
79037;BME280;68434;59.896;30.474;2023-04-24T11:14:04;100513.41;;;23.19;23.23
79037;BME280;68434;59.896;30.474;2023-04-24T11:16:35;100515.63;;;23.45;23.44
79037;BME280;68434;59.896;30.474;2023-04-24T11:19:06;100517.53;;;23.56;22.97
79037;BME280;68434;59.896;30.474;2023-04-24T11:21:44;100510.16;;;23.73;23.31
79037;BME280;68434;59.896;30.474;2023-04-24T11:24:36;100508.16;;;23.57;23.14
79037;BME280;68434;59.896;30.474;2023-04-24T11:27:15;100502.47;;;23.35;23.43
79037;BME280;68434;59.896;30.474;2023-04-24T11:29:45;100508.81;;;23.36;23.31
79037;BME280;68434;59.896;30.474;2023-04-24T11:32:18;100512.38;;;23.59;23.49
79037;BME280;68434;59.896;30.474;2023-04-24T11:34:47;100519.81;;;23.59;22.88
79037;BME280;68434;59.896;30.474;2023-04-24T11:37:16;100506.44;;;23.67;23.19
79037;BME280;68434;59.896;30.474;2023-04-24T11:39:43;100506.00;;;23.59;23.11
79037;BME280;68434;59.896;30.474;2023-04-24T11:42:15;100513.84;;;23.50;23.03
79037;BME280;68434;59.896;30.474;2023-04-24T11:44:43;100518.53;;;23.50;23.13
79037;BME280;68434;59.896;30.474;2023-04-24T11:47:13;100516.28;;;23.35;23.41
79037;BME280;68434;59.896;30.474;2023-04-24T11:49:41;100522.78;;;23.29;23.55
79037;BME280;68434;59.896;30.474;2023-04-24T11:52:08;100518.19;;;23.12;23.39
79037;BME280;68434;59.896;30.474;2023-04-24T11:54:36;100530.56;;;23.09;23.24
79037;BME280;68434;59.896;30.474;2023-04-24T11:57:04;100521.47;;;22.97;23.68
79037;BME280;68434;59.896;30.474;2023-04-24T11:59:37;100529.16;;;22.95;23.81
79037;BME280;68434;59.896;30.474;2023-04-24T12:02:05;100527.22;;;22.96;23.83
79037;BME280;68434;59.896;30.474;2023-04-24T12:04:40;100531.41;;;22.87;23.68
79037;BME280;68434;59.896;30.474;2023-04-24T12:07:08;100536.00;;;22.81;23.71
79037;BME280;68434;59.896;30.474;2023-04-24T12:09:42;100537.66;;;22.71;23.81
79037;BME280;68434;59.896;30.474;2023-04-24T12:12:11;100532.84;;;22.66;23.80
79037;BME280;68434;59.896;30.474;2023-04-24T12:14:46;100528.19;;;22.67;23.95
79037;BME280;68434;59.896;30.474;2023-04-24T12:17:15;100533.94;;;22.65;24.15
79037;BME280;68434;59.896;30.474;2023-04-24T12:19:46;100538.25;;;22.61;23.76
79037;BME280;68434;59.896;30.474;2023-04-24T12:22:14;100540.03;;;22.67;24.06
79037;BME280;68434;59.896;30.474;2023-04-24T12:25:00;100535.84;;;22.76;23.95
79037;BME280;68434;59.896;30.474;2023-04-24T12:27:32;100535.84;;;22.53;24.96
79037;BME280;68434;59.896;30.474;2023-04-24T12:30:03;100538.66;;;22.35;25.77
79037;BME280;68434;59.896;30.474;2023-04-24T12:32:33;100535.88;;;21.94;26.36
79037;BME280;68434;59.896;30.474;2023-04-24T12:35:01;100542.03;;;21.96;26.71
79037;BME280;68434;59.896;30.474;2023-04-24T12:37:33;100551.81;;;21.92;26.61
79037;BME280;68434;59.896;30.474;2023-04-24T12:40:04;100552.03;;;21.72;27.54
79037;BME280;68434;59.896;30.474;2023-04-24T12:42:34;100548.69;;;21.70;27.47
79037;BME280;68434;59.896;30.474;2023-04-24T12:45:05;100554.81;;;21.54;27.74
79037;BME280;68434;59.896;30.474;2023-04-24T12:47:34;100557.50;;;21.43;28.13
79037;BME280;68434;59.896;30.474;2023-04-24T12:50:02;100558.66;;;21.35;28.43
79037;BME280;68434;59.896;30.474;2023-04-24T12:52:30;100556.19;;;21.45;28.20
79037;BME280;68434;59.896;30.474;2023-04-24T12:54:58;100568.34;;;21.20;28.72
79037;BME280;68434;59.896;30.474;2023-04-24T12:57:28;100565.34;;;21.03;28.98
79037;BME280;68434;59.896;30.474;2023-04-24T12:59:57;100576.19;;;20.74;29.51